createdAt,value
2022-12-14T00:01:17.702Z,62.75
2022-12-14T00:03:45.111Z,62.67
2022-12-14T00:06:20.786Z,59.22
2022-12-14T00:08:48.205Z,65.18
2022-12-14T00:11:15.210Z,57.25
2022-12-14T00:13:42.328Z,60.00
2022-12-14T00:16:11.938Z,57.13
2022-12-14T00:18:38.865Z,57.60
2022-12-14T00:21:13.084Z,60.15
2022-12-14T00:23:42.590Z,59.10
2022-12-14T00:26:13.902Z,57.30
2022-12-14T00:28:40.677Z,62.95
2022-12-14T00:31:07.439Z,63.55
2022-12-14T00:33:35.012Z,61.42
2022-12-14T00:36:02.245Z,66.03
2022-12-14T00:38:29.494Z,62.58
2022-12-14T00:40:56.410Z,59.88
2022-12-14T00:43:23.478Z,61.45
2022-12-14T00:45:50.201Z,63.85
2022-12-14T00:48:18.212Z,60.72
2022-12-14T00:50:48.876Z,59.92
2022-12-14T00:53:15.768Z,65.82
2022-12-14T00:55:44.108Z,61.97
2022-12-14T00:58:17.441Z,58.75
2022-12-14T01:00:46.442Z,62.90
2022-12-14T01:03:13.012Z,67.72
2022-12-14T01:05:39.683Z,60.10
2022-12-14T01:08:06.798Z,63.85
2022-12-14T01:10:33.330Z,63.40
2022-12-14T01:12:59.773Z,69.13
2022-12-14T01:15:26.233Z,62.15
2022-12-14T01:17:53.259Z,65.20
2022-12-14T01:20:19.666Z,61.58
2022-12-14T01:22:46.246Z,67.10
2022-12-14T01:25:12.689Z,61.75
2022-12-14T01:27:39.110Z,56.20
2022-12-14T01:30:05.911Z,60.58
2022-12-14T01:32:34.431Z,58.60
2022-12-14T01:35:00.826Z,61.30
2022-12-14T01:37:27.209Z,64.38
2022-12-14T01:39:53.671Z,56.40
2022-12-14T01:42:20.041Z,59.53
2022-12-14T01:44:50.293Z,57.22
2022-12-14T01:47:30.796Z,51.88
2022-12-14T01:50:05.566Z,55.40
2022-12-14T01:52:38.396Z,66.43
2022-12-14T01:55:09.827Z,60.35
2022-12-14T01:58:08.320Z,55.90
2022-12-14T02:00:34.733Z,56.67
2022-12-14T02:03:09.729Z,56.55
2022-12-14T02:05:38.026Z,53.30
2022-12-14T02:08:05.349Z,49.75
2022-12-14T02:10:32.490Z,52.55
2022-12-14T02:13:06.950Z,51.28
2022-12-14T02:15:34.687Z,57.47
2022-12-14T02:18:02.209Z,50.92
2022-12-14T02:20:34.261Z,47.83
2022-12-14T02:23:33.143Z,48.15
2022-12-14T02:26:14.675Z,50.47
2022-12-14T02:28:46.352Z,44.97
2022-12-14T02:31:27.090Z,45.33
2022-12-14T02:34:09.309Z,46.92
2022-12-14T02:36:42.205Z,49.97
2022-12-14T02:39:15.042Z,45.75
2022-12-14T02:41:54.275Z,45.83
2022-12-14T02:44:38.368Z,43.10
2022-12-14T02:47:25.311Z,40.08
2022-12-14T02:50:02.646Z,40.35
2022-12-14T02:52:41.263Z,41.33
2022-12-14T02:55:32.008Z,38.03
2022-12-14T02:58:14.049Z,37.80
2022-12-14T03:00:40.995Z,42.05
2022-12-14T03:03:08.027Z,42.38
2022-12-14T03:05:34.907Z,42.45
2022-12-14T03:08:04.531Z,40.15
2022-12-14T03:10:30.854Z,37.75
2022-12-14T03:13:15.740Z,33.63
2022-12-14T03:15:45.408Z,33.75
2022-12-14T03:18:14.312Z,33.92
2022-12-14T03:20:42.539Z,33.30
2022-12-14T03:23:12.582Z,36.28
2022-12-14T03:25:46.333Z,32.95
2022-12-14T03:28:22.180Z,30.42
2022-12-14T03:31:01.529Z,32.63
2022-12-14T03:33:30.471Z,31.95
2022-12-14T03:36:19.109Z,36.03
2022-12-14T03:38:50.058Z,28.15
2022-12-14T03:41:29.138Z,29.30
2022-12-14T03:44:19.890Z,28.52
2022-12-14T03:46:56.471Z,29.88
2022-12-14T03:49:59.404Z,31.42
2022-12-14T03:55:02.679Z,26.45
2022-12-14T03:57:47.410Z,31.75
2022-12-14T04:00:17.575Z,30.63
2022-12-14T04:02:46.556Z,33.10
2022-12-14T04:05:23.482Z,35.75
2022-12-14T04:08:04.661Z,30.30
2022-12-14T04:11:01.325Z,33.08
2022-12-14T04:13:50.440Z,31.55
2022-12-14T04:16:40.249Z,28.50
2022-12-14T04:19:12.322Z,28.80
2022-12-14T04:21:50.901Z,28.70
2022-12-14T04:24:57.770Z,29.08
2022-12-14T04:27:41.509Z,29.27
2022-12-14T04:30:09.944Z,27.70
2022-12-14T04:33:23.893Z,27.65
2022-12-14T04:35:50.512Z,35.00
2022-12-14T04:38:20.441Z,28.92
2022-12-14T04:40:52.512Z,29.50
2022-12-14T04:43:22.060Z,33.83
2022-12-14T04:46:08.496Z,29.52
2022-12-14T04:49:12.553Z,27.52
2022-12-14T04:51:46.881Z,27.35
2022-12-14T04:54:39.595Z,28.80
2022-12-14T04:59:35.186Z,26.02
2022-12-14T05:02:10.561Z,27.83
2022-12-14T05:04:56.488Z,32.63
2022-12-14T05:07:41.232Z,28.92
2022-12-14T05:10:14.492Z,27.77
2022-12-14T05:12:43.527Z,28.05
2022-12-14T05:15:12.487Z,27.73
2022-12-14T05:17:40.049Z,27.05
2022-12-14T05:20:09.022Z,31.83
2022-12-14T05:22:38.752Z,30.25
2022-12-14T05:25:05.752Z,29.27
2022-12-14T05:27:32.164Z,29.77
2022-12-14T05:29:58.552Z,32.63
2022-12-14T05:32:25.091Z,30.13
2022-12-14T05:34:51.521Z,35.60
2022-12-14T05:37:18.602Z,33.20
2022-12-14T05:39:45.334Z,30.33
2022-12-14T05:42:11.807Z,32.97
2022-12-14T05:44:38.212Z,32.53
2022-12-14T05:47:04.729Z,28.65
2022-12-14T05:49:31.220Z,29.63
2022-12-14T05:51:57.794Z,31.58
2022-12-14T05:54:24.254Z,31.98
2022-12-14T05:56:50.760Z,28.75
2022-12-14T05:59:17.359Z,33.30
2022-12-14T06:01:45.418Z,35.67
2022-12-14T06:04:16.629Z,32.17
2022-12-14T06:06:43.461Z,31.48
2022-12-14T06:09:11.275Z,29.90
2022-12-14T06:11:40.384Z,31.75
2022-12-14T06:14:08.328Z,33.58
2022-12-14T06:16:35.393Z,31.90
2022-12-14T06:19:04.045Z,29.58
2022-12-14T06:21:32.638Z,32.55
2022-12-14T06:23:59.908Z,31.70
2022-12-14T06:26:27.614Z,32.55
2022-12-14T06:28:55.337Z,34.45
2022-12-14T06:31:24.301Z,29.00
2022-12-14T06:33:51.508Z,32.05
2022-12-14T06:36:20.036Z,29.15
2022-12-14T06:38:46.507Z,29.33
2022-12-14T06:41:13.031Z,34.08
2022-12-14T06:43:39.455Z,28.38
2022-12-14T06:46:15.836Z,33.05
2022-12-14T06:48:42.770Z,31.23
2022-12-14T06:51:09.439Z,33.60
2022-12-14T06:53:36.257Z,34.10
2022-12-14T06:56:10.469Z,31.38
2022-12-14T06:58:36.919Z,34.40
2022-12-14T07:01:05.117Z,30.63
2022-12-14T07:03:32.184Z,36.33
2022-12-14T07:05:59.664Z,34.08
2022-12-14T07:08:27.233Z,39.10
2022-12-14T07:10:58.928Z,44.45
2022-12-14T07:13:29.164Z,36.15
2022-12-14T07:15:57.015Z,32.70
2022-12-14T07:18:23.651Z,31.83
2022-12-14T07:20:57.192Z,33.00
2022-12-14T07:23:27.912Z,31.52
2022-12-14T07:26:01.022Z,36.22
2022-12-14T07:28:27.897Z,32.35
2022-12-14T07:30:58.630Z,36.72
2022-12-14T07:33:27.224Z,35.00
2022-12-14T07:36:11.700Z,36.13
2022-12-14T07:38:39.410Z,36.65
2022-12-14T07:41:08.274Z,38.40
2022-12-14T07:43:35.083Z,40.55
2022-12-14T07:46:06.829Z,36.28
2022-12-14T07:48:33.910Z,37.53
2022-12-14T07:51:05.512Z,37.65
2022-12-14T07:53:32.494Z,33.92
2022-12-14T07:56:04.692Z,37.50
2022-12-14T07:58:33.024Z,37.67
2022-12-14T08:01:12.950Z,36.88
2022-12-14T08:03:46.422Z,39.15
2022-12-14T08:06:14.116Z,36.80
2022-12-14T08:08:40.668Z,36.28
2022-12-14T08:11:07.483Z,39.33
2022-12-14T08:13:34.679Z,35.20
2022-12-14T08:16:09.704Z,33.88
2022-12-14T08:18:36.382Z,35.60
2022-12-14T08:21:04.871Z,39.80
2022-12-14T08:23:32.215Z,42.42
2022-12-14T08:26:00.414Z,38.90
2022-12-14T08:28:27.950Z,34.97
2022-12-14T08:30:54.711Z,42.15
2022-12-14T08:33:21.581Z,42.25
2022-12-14T08:35:48.364Z,49.65
2022-12-14T08:38:15.499Z,56.05
2022-12-14T08:40:41.954Z,60.53
2022-12-14T08:43:09.367Z,58.40
2022-12-14T08:45:36.203Z,56.80
2022-12-14T08:48:02.706Z,56.35
2022-12-14T08:50:29.284Z,46.22
2022-12-14T08:52:55.881Z,48.67
2022-12-14T08:55:28.269Z,52.33
2022-12-14T08:57:56.903Z,50.53
2022-12-14T09:00:23.380Z,50.72
2022-12-14T09:02:51.121Z,46.80
2022-12-14T09:05:17.977Z,44.38
2022-12-14T09:07:44.463Z,38.03
2022-12-14T09:10:11.216Z,42.38
2022-12-14T09:12:37.655Z,45.63
2022-12-14T09:15:04.246Z,37.15
2022-12-14T09:17:30.659Z,36.67
2022-12-14T09:19:58.015Z,38.33
2022-12-14T09:22:24.573Z,37.35
2022-12-14T09:24:52.033Z,38.13
2022-12-14T09:27:18.566Z,36.00
2022-12-14T09:29:44.934Z,36.63
2022-12-14T09:32:11.320Z,37.00
2022-12-14T09:34:37.724Z,36.22
2022-12-14T09:37:04.643Z,39.38
2022-12-14T09:39:31.588Z,34.50
2022-12-14T09:42:40.930Z,34.35
2022-12-14T09:45:17.211Z,37.90
2022-12-14T09:47:54.996Z,34.58
2022-12-14T09:50:22.475Z,34.75
2022-12-14T09:52:54.838Z,38.50
2022-12-14T09:58:01.466Z,41.58
2022-12-14T10:00:34.307Z,32.17
2022-12-14T10:03:28.044Z,31.77
2022-12-14T10:06:16.821Z,24.50
2022-12-14T10:09:18.628Z,25.73
2022-12-14T10:11:50.014Z,29.35
2022-12-14T10:14:51.809Z,35.07
2022-12-14T10:17:24.108Z,27.73
2022-12-14T10:19:56.198Z,28.30
2022-12-14T10:22:25.930Z,32.13
2022-12-14T10:25:05.512Z,34.78
2022-12-14T10:27:48.031Z,31.52
2022-12-14T10:30:23.531Z,32.17
2022-12-14T10:32:54.975Z,35.70
2022-12-14T10:35:45.532Z,29.83
2022-12-14T10:38:23.805Z,28.33
2022-12-14T10:40:53.638Z,26.85
2022-12-14T10:43:43.540Z,26.58
2022-12-14T10:46:33.486Z,23.00
2022-12-14T10:49:09.039Z,15.60
2022-12-14T10:51:39.392Z,18.20
2022-12-14T10:54:30.487Z,20.08
2022-12-14T10:56:57.231Z,18.05
2022-12-14T10:59:25.344Z,16.52
2022-12-14T11:02:01.355Z,16.75
2022-12-14T11:04:39.695Z,17.00
2022-12-14T11:07:12.154Z,16.33
2022-12-14T11:12:18.358Z,15.98
2022-12-14T11:14:55.879Z,14.52
2022-12-14T11:17:39.660Z,14.00
2022-12-14T11:20:13.245Z,15.23
2022-12-14T11:22:53.041Z,13.55
2022-12-14T11:25:45.083Z,14.13
2022-12-14T11:28:25.826Z,13.07
2022-12-14T11:31:00.885Z,11.80
2022-12-14T11:33:41.499Z,10.73
2022-12-14T11:36:08.930Z,10.38
2022-12-14T11:38:35.414Z,10.10
2022-12-14T11:41:10.733Z,11.75
2022-12-14T11:43:38.913Z,10.95
2022-12-14T11:46:05.788Z,10.55
2022-12-14T11:48:34.904Z,13.75
2022-12-14T11:51:27.877Z,10.18
2022-12-14T11:54:02.573Z,10.18
2022-12-14T11:56:29.094Z,11.55
2022-12-14T11:58:55.683Z,10.57
2022-12-14T12:01:26.588Z,10.13
2022-12-14T12:03:55.587Z,13.48
2022-12-14T12:06:24.808Z,12.00
2022-12-14T12:08:59.736Z,11.52
2022-12-14T12:11:34.230Z,12.70
2022-12-14T12:14:04.056Z,13.35
2022-12-14T12:16:32.746Z,13.68
2022-12-14T12:19:11.250Z,12.73
2022-12-14T12:21:44.579Z,13.05
2022-12-14T12:24:20.470Z,11.98
2022-12-14T12:26:54.841Z,14.43
2022-12-14T12:29:40.544Z,11.15
2022-12-14T12:32:27.077Z,14.38
2022-12-14T12:35:01.380Z,11.70
2022-12-14T12:37:35.352Z,13.63
2022-12-14T12:40:13.536Z,11.52
2022-12-14T12:42:51.597Z,11.80
2022-12-14T12:45:25.837Z,11.25
2022-12-14T12:48:14.679Z,11.60
2022-12-14T12:50:49.836Z,10.63
2022-12-14T12:53:24.383Z,13.70
2022-12-14T12:55:53.860Z,9.88
2022-12-14T12:58:23.381Z,11.07
2022-12-14T13:00:55.365Z,11.55
2022-12-14T13:03:28.012Z,10.82
2022-12-14T13:05:56.758Z,12.02
2022-12-14T13:08:30.874Z,11.68
2022-12-14T13:13:50.548Z,11.73
2022-12-14T13:16:27.176Z,10.27
2022-12-14T13:19:13.206Z,10.75
2022-12-14T13:21:51.755Z,11.70
2022-12-14T13:24:20.300Z,9.60
2022-12-14T13:27:17.457Z,10.23
2022-12-14T13:29:50.588Z,9.43
2022-12-14T13:35:24.759Z,10.43
2022-12-14T13:38:06.221Z,12.30
2022-12-14T13:40:41.506Z,11.98
2022-12-14T13:43:17.404Z,11.88
2022-12-14T13:45:46.198Z,9.70
2022-12-14T13:48:27.828Z,12.80
2022-12-14T13:51:01.388Z,11.63
2022-12-14T13:53:36.251Z,12.45
2022-12-14T13:56:03.006Z,15.60
2022-12-14T13:58:47.173Z,11.90
2022-12-14T14:01:14.931Z,13.65
2022-12-14T14:03:47.534Z,12.63
2022-12-14T14:06:39.341Z,15.88
2022-12-14T14:09:29.161Z,12.05
2022-12-14T14:12:00.070Z,14.43
2022-12-14T14:14:48.637Z,18.60
2022-12-14T14:17:25.385Z,13.48
2022-12-14T14:19:56.523Z,12.98
2022-12-14T14:22:27.484Z,13.75
2022-12-14T14:25:10.175Z,17.25
2022-12-14T14:27:42.154Z,12.40
2022-12-14T14:30:37.351Z,14.30
2022-12-14T14:33:44.951Z,16.73
2022-12-14T14:36:26.334Z,14.63
2022-12-14T14:38:54.388Z,13.10
2022-12-14T14:41:23.605Z,13.00
2022-12-14T14:43:54.013Z,13.25
2022-12-14T14:46:32.795Z,15.82
2022-12-14T14:49:00.330Z,13.30
2022-12-14T14:51:32.993Z,11.93
2022-12-14T14:54:44.755Z,11.95
2022-12-14T14:57:55.529Z,13.50
2022-12-14T15:00:22.944Z,13.20
2022-12-14T15:02:52.017Z,13.50
2022-12-14T15:05:54.299Z,13.82
2022-12-14T15:08:33.909Z,12.77
2022-12-14T15:11:04.649Z,12.98
2022-12-14T15:13:43.008Z,13.60
2022-12-14T15:16:21.921Z,19.13
2022-12-14T15:18:49.245Z,18.08
2022-12-14T15:21:16.671Z,16.77
2022-12-14T15:23:52.169Z,15.50
2022-12-14T15:26:26.852Z,17.25
2022-12-14T15:28:55.892Z,19.50
2022-12-14T15:31:30.916Z,18.95
2022-12-14T15:33:58.191Z,21.05
2022-12-14T15:36:30.816Z,19.45
2022-12-14T15:38:58.307Z,23.52
2022-12-14T15:41:27.723Z,18.85
2022-12-14T15:43:59.799Z,19.25
2022-12-14T15:48:56.973Z,19.67
2022-12-14T15:51:27.769Z,17.42
2022-12-14T15:53:55.049Z,23.08
2022-12-14T15:56:30.569Z,18.58
2022-12-14T15:58:59.298Z,18.65
2022-12-14T16:01:29.571Z,19.48
2022-12-14T16:03:58.791Z,21.33
2022-12-14T16:06:27.306Z,20.55
2022-12-14T16:08:58.354Z,20.15
2022-12-14T16:11:35.105Z,17.35
2022-12-14T16:14:06.393Z,17.98
2022-12-14T16:16:32.864Z,18.20
2022-12-14T16:19:20.270Z,16.48
2022-12-14T16:22:05.143Z,20.80
2022-12-14T16:24:31.835Z,18.17
2022-12-14T16:26:59.944Z,19.52
2022-12-14T16:29:28.901Z,19.33
2022-12-14T16:32:15.292Z,20.90
2022-12-14T16:34:59.011Z,21.40
2022-12-14T16:37:33.937Z,21.60
2022-12-14T16:40:00.744Z,19.50
2022-12-14T16:42:27.238Z,19.70
2022-12-14T16:44:54.374Z,20.23
2022-12-14T16:47:20.713Z,23.02
2022-12-14T16:49:50.685Z,21.55
2022-12-14T16:52:19.854Z,19.50
2022-12-14T16:55:06.976Z,26.00
2022-12-14T16:57:33.820Z,22.55
2022-12-14T17:00:06.674Z,22.10
2022-12-14T17:02:38.422Z,20.25
2022-12-14T17:05:12.614Z,22.52
2022-12-14T17:07:39.415Z,27.17
2022-12-14T17:10:16.556Z,22.48
2022-12-14T17:12:44.009Z,26.25
2022-12-14T17:15:19.479Z,26.42
2022-12-14T17:17:49.456Z,25.85
2022-12-14T17:20:28.315Z,22.10
2022-12-14T17:22:58.432Z,24.08
2022-12-14T17:25:26.221Z,24.60
2022-12-14T17:27:52.723Z,24.98
2022-12-14T17:30:21.617Z,24.10
2022-12-14T17:32:48.842Z,22.38
2022-12-14T17:35:26.798Z,21.70
2022-12-14T17:37:53.286Z,22.65
2022-12-14T17:40:21.708Z,22.45
2022-12-14T17:42:53.182Z,22.88
2022-12-14T17:45:25.667Z,25.40
2022-12-14T17:50:19.101Z,27.20
2022-12-14T17:52:46.079Z,23.35
2022-12-14T17:55:21.905Z,23.83
2022-12-14T17:57:49.088Z,31.90
2022-12-14T18:00:35.709Z,27.80
2022-12-14T18:03:03.031Z,27.40
2022-12-14T18:05:31.033Z,30.00
2022-12-14T18:07:58.014Z,33.42
2022-12-14T18:10:25.045Z,31.27
2022-12-14T18:12:51.493Z,33.47
2022-12-14T18:15:22.801Z,35.67
2022-12-14T18:17:49.701Z,31.80
2022-12-14T18:20:16.226Z,29.08
2022-12-14T18:22:42.843Z,31.23
2022-12-14T18:25:25.077Z,30.20
2022-12-14T18:27:51.772Z,35.55
2022-12-14T18:30:18.396Z,28.17
2022-12-14T18:32:44.885Z,28.63
2022-12-14T18:35:17.222Z,31.08
2022-12-14T18:40:14.462Z,31.20
2022-12-14T18:42:40.845Z,29.85
2022-12-14T18:45:14.622Z,30.17
2022-12-14T18:47:42.573Z,30.73
2022-12-14T18:50:09.881Z,32.50
2022-12-14T18:52:36.281Z,31.60
2022-12-14T18:55:02.927Z,29.75
2022-12-14T18:57:29.413Z,31.10
2022-12-14T18:59:56.392Z,31.77
2022-12-14T19:02:22.971Z,32.78
2022-12-14T19:04:49.776Z,33.20
2022-12-14T19:07:16.155Z,32.00
2022-12-14T19:09:42.823Z,37.75
2022-12-14T19:12:10.926Z,35.95
2022-12-14T19:14:37.388Z,31.67
2022-12-14T19:17:03.790Z,36.40
2022-12-14T19:19:36.744Z,33.42
2022-12-14T19:22:07.782Z,35.45
2022-12-14T19:24:34.893Z,31.35
2022-12-14T19:27:01.657Z,34.85
2022-12-14T19:29:28.079Z,35.42
2022-12-14T19:31:55.610Z,35.28
2022-12-14T19:34:24.472Z,31.52
2022-12-14T19:36:50.918Z,37.00
2022-12-14T19:39:17.417Z,37.72
2022-12-14T19:41:43.902Z,32.05
2022-12-14T19:44:10.346Z,35.75
2022-12-14T19:46:37.023Z,37.53
2022-12-14T19:49:03.525Z,32.05
2022-12-14T19:51:30.044Z,31.23
2022-12-14T19:53:56.497Z,33.05
2022-12-14T19:56:23.120Z,36.20
2022-12-14T19:58:49.586Z,36.63
2022-12-14T20:01:17.495Z,35.50
2022-12-14T20:03:44.224Z,35.67
2022-12-14T20:06:10.808Z,35.65
2022-12-14T20:08:37.239Z,35.03
2022-12-14T20:11:08.406Z,37.20
2022-12-14T20:13:35.326Z,31.55
2022-12-14T20:16:02.208Z,34.13
2022-12-14T20:18:30.014Z,36.90
2022-12-14T20:21:04.753Z,36.80
2022-12-14T20:23:32.210Z,36.55
2022-12-14T20:26:10.200Z,36.28
2022-12-14T20:28:36.855Z,38.53
2022-12-14T20:31:08.419Z,35.60
2022-12-14T20:33:35.309Z,34.35
2022-12-14T20:36:02.115Z,37.25
2022-12-14T20:38:28.584Z,37.53
2022-12-14T20:40:55.118Z,35.35
2022-12-14T20:43:21.522Z,38.35
2022-12-14T20:45:47.887Z,46.58
2022-12-14T20:48:14.334Z,42.95
2022-12-14T20:50:42.872Z,42.00
2022-12-14T20:53:09.260Z,35.05
2022-12-14T20:55:36.092Z,36.50
2022-12-14T20:58:02.626Z,35.35
2022-12-14T21:00:29.329Z,34.20
2022-12-14T21:02:55.828Z,34.00
2022-12-14T21:05:22.414Z,36.28
2022-12-14T21:07:48.768Z,40.47
2022-12-14T21:10:15.165Z,42.70
2022-12-14T21:12:41.585Z,36.22
2022-12-14T21:15:08.341Z,39.47
2022-12-14T21:17:34.854Z,37.60
2022-12-14T21:20:01.672Z,39.10
2022-12-14T21:22:30.144Z,35.53
2022-12-14T21:25:05.796Z,37.97
2022-12-14T21:27:34.096Z,38.60
2022-12-14T21:30:00.910Z,36.38
2022-12-14T21:32:27.954Z,37.25
2022-12-14T21:34:54.491Z,39.78
2022-12-14T21:37:20.997Z,35.60
2022-12-14T21:39:54.437Z,41.70
2022-12-14T21:42:25.595Z,38.47
2022-12-14T21:44:53.287Z,36.30
2022-12-14T21:47:25.130Z,36.70
2022-12-14T21:49:51.697Z,34.90
2022-12-14T21:52:20.614Z,36.85
2022-12-14T21:54:47.001Z,38.78
2022-12-14T21:57:33.724Z,38.78
2022-12-14T22:00:00.405Z,34.53
2022-12-14T22:02:27.562Z,35.38
2022-12-14T22:04:56.044Z,33.35
2022-12-14T22:07:24.685Z,33.90
2022-12-14T22:09:51.201Z,33.65
2022-12-14T22:12:17.978Z,36.35
2022-12-14T22:14:44.660Z,36.95
2022-12-14T22:17:12.032Z,35.35
2022-12-14T22:19:38.396Z,35.45
2022-12-14T22:22:05.289Z,33.50
2022-12-14T22:24:31.933Z,33.80
2022-12-14T22:26:59.211Z,33.65
2022-12-14T22:29:25.823Z,35.17
2022-12-14T22:31:52.353Z,30.95
2022-12-14T22:34:21.247Z,36.72
2022-12-14T22:36:49.382Z,37.25
2022-12-14T22:39:17.034Z,38.53
2022-12-14T22:41:43.445Z,34.20
2022-12-14T22:44:10.968Z,35.50
2022-12-14T22:46:37.433Z,34.28
2022-12-14T22:49:04.060Z,35.30
2022-12-14T22:51:30.514Z,30.85
2022-12-14T22:53:57.650Z,36.67
2022-12-14T22:56:39.286Z,40.75
2022-12-14T22:59:10.265Z,39.60
2022-12-14T23:01:37.653Z,34.72
2022-12-14T23:04:05.883Z,38.75
2022-12-14T23:06:32.783Z,35.20
2022-12-14T23:09:17.798Z,37.30
2022-12-14T23:12:02.702Z,39.30
2022-12-14T23:14:47.688Z,35.88
2022-12-14T23:17:33.145Z,32.42
2022-12-14T23:20:17.979Z,35.10
2022-12-14T23:23:03.296Z,35.67
2022-12-14T23:25:48.642Z,37.53
2022-12-14T23:28:33.476Z,33.92
2022-12-14T23:31:18.579Z,33.60
2022-12-14T23:34:03.727Z,35.10
2022-12-14T23:36:48.828Z,33.60
2022-12-14T23:39:34.140Z,31.83
2022-12-14T23:42:19.168Z,33.88
2022-12-14T23:45:03.885Z,32.35
2022-12-14T23:47:49.326Z,37.42
2022-12-14T23:50:34.357Z,31.58
2022-12-14T23:53:26.185Z,35.40
2022-12-14T23:56:11.228Z,36.20
2022-12-14T23:58:56.620Z,30.40
